Time;durP1;ratioP1;P1;durP2;ratioP2;P2;SDS_P1;SDS_P2;PMS_P1;PMS_P2;Temp;Humidity;BMP_temperature;BMP_pressure;BME280_temperature;BME280_humidity;BME280_pressure;Samples;Min_cycle;Max_cycle;Signal;HPM_P1;HPM_P2
2023/05/17 00:01:48;;;;;;;5.82;1.85;;;;;;;8.83;95.16;101157.00;6154563;24;20022;-71
2023/05/17 00:04:19;;;;;;;6.43;1.77;;;;;;;8.80;95.89;101151.84;6149819;24;20223;-73
2023/05/17 00:06:49;;;;;;;5.88;1.90;;;;;;;8.78;97.53;101151.03;5926652;23;20050;-71
2023/05/17 00:09:19;;;;;;;5.80;1.70;;;;;;;8.84;95.58;101153.50;5150070;28;20026;-71
2023/05/17 00:11:50;;;;;;;7.78;2.00;;;;;;;8.69;96.92;101156.41;5146487;28;20030;-71
2023/05/17 00:14:20;;;;;;;4.85;1.80;;;;;;;8.70;96.98;101147.69;5151700;28;20033;-72
2023/05/17 00:16:51;;;;;;;5.97;1.98;;;;;;;8.64;97.49;101158.25;5147419;28;20037;-70
2023/05/17 00:19:21;;;;;;;6.28;2.05;;;;;;;8.67;97.58;101152.97;5146942;28;20033;-71
2023/05/17 00:21:52;;;;;;;4.65;1.92;;;;;;;8.70;97.66;101157.28;5144357;28;20419;-72
2023/05/17 00:24:22;;;;;;;5.65;2.00;;;;;;;8.74;96.46;101158.94;5150839;28;20030;-71
2023/05/17 00:26:52;;;;;;;3.95;1.70;;;;;;;8.55;97.41;101162.75;5148189;28;20177;-71
2023/05/17 00:29:22;;;;;;;7.22;2.22;;;;;;;8.54;98.66;101163.66;5149425;28;20053;-70
2023/05/17 00:31:53;;;;;;;8.65;2.17;;;;;;;8.58;98.96;101167.91;5145834;28;20035;-71
2023/05/17 00:34:23;;;;;;;7.57;2.10;;;;;;;8.50;97.40;101167.16;5150807;28;20030;-70
2023/05/17 00:36:53;;;;;;;6.90;2.00;;;;;;;8.53;97.96;101169.75;5147678;28;20111;-71
2023/05/17 00:39:24;;;;;;;5.45;1.98;;;;;;;8.37;99.88;101157.88;5149128;28;20612;-71
2023/05/17 00:41:54;;;;;;;6.00;1.80;;;;;;;8.27;100.00;101164.13;5147839;28;20092;-71
2023/05/17 00:44:24;;;;;;;8.63;2.10;;;;;;;8.33;100.00;101162.28;5150236;28;20031;-71
2023/05/17 00:46:54;;;;;;;4.93;1.80;;;;;;;8.28;100.00;101156.28;5150907;28;20110;-70
2023/05/17 00:49:26;;;;;;;4.15;2.05;;;;;;;8.39;100.00;101151.75;5149791;28;20041;-71
2023/05/17 00:51:57;;;;;;;6.65;2.10;;;;;;;8.35;100.00;101147.47;5150670;28;20073;-71
2023/05/17 00:54:29;;;;;;;6.70;2.17;;;;;;;8.35;100.00;101160.50;5147642;28;20034;-71
2023/05/17 00:57:00;;;;;;;6.13;2.10;;;;;;;8.40;100.00;101158.66;5136726;28;20027;-71
2023/05/17 00:59:30;;;;;;;4.82;1.92;;;;;;;8.57;99.48;101161.81;5149145;28;20048;-72
2023/05/17 01:02:02;;;;;;;5.35;1.77;;;;;;;8.53;98.68;101162.78;5144763;28;20410;-71
2023/05/17 01:04:33;;;;;;;5.22;2.08;;;;;;;8.47;100.00;101175.91;5146809;28;20531;-72
2023/05/17 01:07:03;;;;;;;7.90;1.95;;;;;;;8.42;100.00;101167.31;5144836;28;20046;-71
2023/05/17 01:09:34;;;;;;;4.72;1.63;;;;;;;8.42;100.00;101172.50;5147642;28;20103;-72
2023/05/17 01:12:17;;;;;;;4.72;2.00;;;;;;;8.52;100.00;101163.66;5146472;28;20364;-73
2023/05/17 01:15:11;;;;;;;7.63;1.92;;;;;;;8.51;100.00;101166.28;5147539;28;20082;-71
2023/05/17 01:18:15;;;;;;;8.00;2.10;;;;;;;8.51;100.00;101155.88;5144685;28;20397;-71
2023/05/17 01:20:47;;;;;;;5.88;2.10;;;;;;;8.52;100.00;101147.19;5144231;28;20118;-70
2023/05/17 01:23:55;;;;;;;4.75;1.50;;;;;;;8.69;100.00;101165.97;5147962;28;20030;-71
2023/05/17 01:26:43;;;;;;;5.82;1.90;;;;;;;8.71;100.00;101159.84;5144539;28;20065;-70
2023/05/17 01:29:15;;;;;;;6.85;2.83;;;;;;;8.66;100.00;101159.06;5147573;28;20029;-72
2023/05/17 01:31:48;;;;;;;8.95;1.90;;;;;;;8.69;100.00;101169.44;5147247;28;20392;-70
2023/05/17 01:34:25;;;;;;;6.93;2.08;;;;;;;8.69;100.00;101174.63;5150501;28;20121;-72
2023/05/17 01:36:56;;;;;;;5.63;2.00;;;;;;;8.73;100.00;101171.06;5150472;28;20041;-70
2023/05/17 01:39:27;;;;;;;7.93;2.10;;;;;;;8.73;100.00;101163.25;5150604;28;20479;-71
2023/05/17 01:42:16;;;;;;;7.35;2.13;;;;;;;8.60;100.00;101167.00;5152198;28;20034;-70
2023/05/17 01:45:01;;;;;;;5.95;1.95;;;;;;;8.63;100.00;101166.94;5146563;28;20409;-71
2023/05/17 01:47:42;;;;;;;9.02;2.55;;;;;;;8.62;100.00;101164.34;5144403;28;20038;-71
2023/05/17 01:50:14;;;;;;;9.05;2.10;;;;;;;8.58;100.00;101184.38;5146013;28;20034;-72
2023/05/17 01:53:04;;;;;;;4.97;1.70;;;;;;;8.57;100.00;101181.81;5148003;28;20034;-72
2023/05/17 01:55:50;;;;;;;6.20;1.92;;;;;;;8.53;100.00;101180.16;5145046;28;20366;-71
2023/05/17 01:58:24;;;;;;;7.70;1.88;;;;;;;8.50;100.00;101186.28;5141278;28;20030;-72
2023/05/17 02:00:57;;;;;;;7.35;1.85;;;;;;;8.56;100.00;101190.53;5142352;28;20488;-71
2023/05/17 02:03:28;;;;;;;4.93;1.85;;;;;;;8.65;100.00;101195.56;5146829;28;20037;-71
2023/05/17 02:05:58;;;;;;;10.90;2.63;;;;;;;8.63;100.00;101187.78;5144984;28;20081;-71
2023/05/17 02:08:28;;;;;;;4.95;1.70;;;;;;;8.68;100.00;101188.56;5144553;28;20018;-72
2023/05/17 02:10:59;;;;;;;6.13;1.70;;;;;;;8.53;100.00;101196.63;5147121;28;20026;-71
2023/05/17 02:13:29;;;;;;;8.18;2.47;;;;;;;8.56;100.00;101196.56;5144602;28;20042;-71
2023/05/17 02:16:00;;;;;;;6.18;1.80;;;;;;;8.41;100.00;101196.84;5146285;28;20163;-71
2023/05/17 02:18:31;;;;;;;9.18;1.95;;;;;;;8.53;100.00;101201.00;5145192;28;20026;-71
2023/05/17 02:21:01;;;;;;;4.30;1.60;;;;;;;8.52;100.00;101197.53;5144480;28;20564;-70
2023/05/17 02:23:32;;;;;;;6.30;1.50;;;;;;;8.62;100.00;101199.09;5146428;28;20432;-72
2023/05/17 02:26:02;;;;;;;4.75;1.92;;;;;;;8.59;100.00;101196.53;5146887;28;20018;-71
2023/05/17 02:28:32;;;;;;;6.18;1.83;;;;;;;8.51;100.00;101198.41;5143798;28;20022;-71
2023/05/17 02:31:02;;;;;;;6.63;1.80;;;;;;;8.62;100.00;101201.72;5143927;28;20038;-71
2023/05/17 02:33:33;;;;;;;9.15;2.33;;;;;;;8.48;100.00;101201.06;5144982;28;20037;-72
2023/05/17 02:36:04;;;;;;;11.57;2.20;;;;;;;8.72;100.00;101199.78;5146116;28;20038;-72
2023/05/17 02:38:34;;;;;;;5.07;1.40;;;;;;;8.52;100.00;101194.09;5143176;28;20060;-71
2023/05/17 02:41:04;;;;;;;4.50;1.88;;;;;;;8.56;100.00;101201.78;5148689;28;20041;-72
2023/05/17 02:43:35;;;;;;;7.13;1.70;;;;;;;8.39;100.00;101202.97;5144319;28;20283;-72
2023/05/17 02:46:05;;;;;;;7.82;2.30;;;;;;;8.52;100.00;101205.34;5147910;28;20038;-71
2023/05/17 02:48:35;;;;;;;4.43;1.80;;;;;;;8.50;100.00;101201.91;5145016;28;20065;-71
2023/05/17 02:51:06;;;;;;;6.38;1.88;;;;;;;8.65;100.00;101205.97;5148600;28;20480;-71
2023/05/17 02:53:36;;;;;;;7.40;2.00;;;;;;;8.34;100.00;101207.38;5142926;28;20143;-71
2023/05/17 02:56:07;;;;;;;5.45;1.88;;;;;;;8.36;100.00;101209.09;5144480;28;20195;-71
2023/05/17 02:58:37;;;;;;;8.35;2.20;;;;;;;8.54;100.00;101202.72;5142219;28;20485;-71
2023/05/17 03:01:08;;;;;;;5.93;1.98;;;;;;;8.49;100.00;101205.41;5146590;28;20053;-71
2023/05/17 03:03:38;;;;;;;6.95;2.17;;;;;;;8.52;100.00;101210.56;5149148;28;20026;-72
2023/05/17 03:06:08;;;;;;;7.20;2.20;;;;;;;8.38;100.00;101202.09;5152133;28;20057;-72
2023/05/17 03:08:39;;;;;;;4.45;1.83;;;;;;;8.48;100.00;101211.50;5145869;28;20481;-72
2023/05/17 03:11:09;;;;;;;5.95;1.85;;;;;;;8.33;100.00;101208.28;5150333;28;20030;-71
2023/05/17 03:13:39;;;;;;;12.30;2.90;;;;;;;8.44;100.00;101211.56;5147838;28;20500;-71
2023/05/17 03:16:10;;;;;;;8.98;2.20;;;;;;;8.40;100.00;101215.97;5145907;28;20034;-71
2023/05/17 03:18:40;;;;;;;9.93;3.15;;;;;;;8.47;100.00;101211.50;5146441;28;20306;-70
2023/05/17 03:21:10;;;;;;;7.38;2.15;;;;;;;8.28;100.00;101217.91;5147783;28;20587;-71
2023/05/17 03:23:41;;;;;;;8.63;1.90;;;;;;;8.30;100.00;101219.63;5144457;28;20539;-71
2023/05/17 03:26:11;;;;;;;8.55;2.00;;;;;;;8.36;100.00;101222.09;5146418;28;20038;-72
2023/05/17 03:28:41;;;;;;;7.10;1.95;;;;;;;8.34;100.00;101226.50;5145914;28;20027;-71
2023/05/17 03:31:12;;;;;;;6.32;1.95;;;;;;;8.50;100.00;101227.94;5148715;28;20869;-72
2023/05/17 03:33:42;;;;;;;6.93;1.75;;;;;;;8.51;100.00;101236.63;5146908;28;20030;-71
2023/05/17 03:36:13;;;;;;;9.30;2.30;;;;;;;8.44;100.00;101232.41;5153265;28;20049;-71
2023/05/17 03:38:43;;;;;;;10.57;2.55;;;;;;;8.54;100.00;101237.44;5145705;28;20037;-71
2023/05/17 03:41:14;;;;;;;5.07;2.00;;;;;;;8.56;100.00;101247.84;5151804;28;20041;-73
2023/05/17 03:43:44;;;;;;;8.55;2.10;;;;;;;8.62;100.00;101245.13;5148343;28;20027;-71
2023/05/17 03:46:14;;;;;;;8.98;2.20;;;;;;;8.67;100.00;101246.78;5150199;28;20407;-72
2023/05/17 03:48:45;;;;;;;7.47;2.13;;;;;;;8.56;100.00;101256.50;5146458;28;20250;-72
2023/05/17 03:51:15;;;;;;;8.68;2.25;;;;;;;8.79;100.00;101261.31;5145851;28;20040;-71
2023/05/17 03:53:46;;;;;;;8.77;2.35;;;;;;;8.81;100.00;101267.38;5145597;28;20497;-71
2023/05/17 03:56:16;;;;;;;9.43;2.25;;;;;;;8.74;100.00;101264.00;5166673;28;20026;-70
2023/05/17 03:58:47;;;;;;;9.00;1.98;;;;;;;8.81;100.00;101268.25;5146471;28;20045;-70
2023/05/17 04:01:19;;;;;;;8.32;2.17;;;;;;;8.86;100.00;101269.00;5149315;28;20081;-70
2023/05/17 04:03:49;;;;;;;9.77;2.45;;;;;;;8.80;100.00;101279.56;5146974;28;20027;-71
2023/05/17 04:06:19;;;;;;;7.55;2.25;;;;;;;8.94;100.00;101277.56;5147062;28;20507;-71
2023/05/17 04:08:50;;;;;;;6.35;2.25;;;;;;;8.87;100.00;101278.56;5149125;28;20033;-71
2023/05/17 04:11:22;;;;;;;9.73;2.40;;;;;;;9.12;100.00;101279.84;5147672;28;20034;-72
2023/05/17 04:13:54;;;;;;;11.95;3.00;;;;;;;8.84;100.00;101286.44;5146359;28;20117;-73
2023/05/17 04:16:24;;;;;;;9.35;2.83;;;;;;;9.10;100.00;101285.97;5148904;28;20026;-71
2023/05/17 04:18:54;;;;;;;12.82;2.50;;;;;;;9.14;100.00;101291.94;5146596;28;20027;-71
2023/05/17 04:21:25;;;;;;;7.03;2.25;;;;;;;9.27;100.00;101287.34;5145776;28;20104;-71
2023/05/17 04:23:55;;;;;;;9.00;2.08;;;;;;;9.66;100.00;101297.03;5149684;28;20030;-72
2023/05/17 04:26:26;;;;;;;8.95;2.08;;;;;;;9.72;100.00;101291.69;5149981;28;20026;-72
2023/05/17 04:28:56;;;;;;;5.53;1.85;;;;;;;10.36;97.88;101302.47;5146431;28;20034;-71
2023/05/17 04:31:26;;;;;;;8.70;2.13;;;;;;;9.99;99.86;101298.94;5145663;28;20056;-72
2023/05/17 04:33:57;;;;;;;9.63;1.98;;;;;;;9.83;100.00;101302.78;5150769;28;20023;-72
2023/05/17 04:36:27;;;;;;;14.82;2.97;;;;;;;9.91;99.24;101308.69;5148967;28;20093;-72
2023/05/17 04:38:57;;;;;;;11.80;2.38;;;;;;;9.61;100.00;101312.78;5150103;28;20121;-72
2023/05/17 04:41:27;;;;;;;8.48;2.15;;;;;;;9.72;100.00;101315.16;5148478;28;20554;-71
2023/05/17 04:43:58;;;;;;;13.48;2.40;;;;;;;9.51;100.00;101321.66;5145919;28;20210;-72
2023/05/17 04:46:28;;;;;;;10.27;2.60;;;;;;;9.49;100.00;101330.44;5148087;28;20445;-70
2023/05/17 04:48:59;;;;;;;7.40;2.50;;;;;;;9.53;100.00;101329.47;5146547;28;20035;-71
2023/05/17 04:51:29;;;;;;;8.38;2.58;;;;;;;9.76;100.00;101335.97;5141917;28;20030;-70
2023/05/17 04:54:00;;;;;;;11.13;2.70;;;;;;;9.70;100.00;101330.88;5145913;28;20066;-72
2023/05/17 04:56:31;;;;;;;16.40;2.80;;;;;;;9.84;100.00;101338.41;5142786;28;20460;-71
2023/05/17 04:59:02;;;;;;;12.25;1.92;;;;;;;9.94;100.00;101339.94;5146465;28;20105;-71
2023/05/17 05:01:34;;;;;;;12.77;2.25;;;;;;;9.99;100.00;101348.56;5142157;28;20466;-71
2023/05/17 05:04:05;;;;;;;11.23;2.35;;;;;;;9.97;100.00;101352.97;5148644;28;20026;-71
2023/05/17 05:06:36;;;;;;;12.52;2.90;;;;;;;10.08;100.00;101349.25;5145110;28;20507;-71
2023/05/17 05:09:06;;;;;;;13.27;2.92;;;;;;;10.20;100.00;101361.19;5149694;28;20118;-71
2023/05/17 05:11:36;;;;;;;9.35;2.15;;;;;;;10.26;99.95;101358.44;5145236;28;20282;-73
2023/05/17 05:14:07;;;;;;;16.27;2.40;;;;;;;10.34;99.72;101372.22;5147747;28;20555;-73
2023/05/17 05:16:37;;;;;;;9.55;2.35;;;;;;;10.33;99.50;101363.50;5146174;28;20034;-71
2023/05/17 05:19:08;;;;;;;9.48;1.90;;;;;;;10.46;97.75;101364.06;5145312;28;20026;-72
2023/05/17 05:21:39;;;;;;;14.70;2.60;;;;;;;10.17;98.77;101369.94;5144679;28;20035;-73
2023/05/17 05:24:09;;;;;;;13.88;2.15;;;;;;;10.49;95.93;101375.31;5147863;28;20038;-71
2023/05/17 05:26:40;;;;;;;10.52;2.05;;;;;;;10.47;97.09;101379.72;5144262;28;20050;-72
2023/05/17 05:29:10;;;;;;;16.42;2.78;;;;;;;10.64;95.56;101376.72;5144919;28;20101;-71
2023/05/17 05:31:40;;;;;;;10.35;2.58;;;;;;;10.84;93.60;101375.38;5136652;28;20097;-72
2023/05/17 05:34:11;;;;;;;9.02;2.10;;;;;;;11.44;94.16;101379.94;5141907;28;20053;-71
2023/05/17 05:36:41;;;;;;;9.75;2.10;;;;;;;11.45;90.63;101383.41;5139204;28;20092;-72
2023/05/17 05:39:11;;;;;;;12.88;1.95;;;;;;;11.72;89.09;101380.06;5138687;28;20034;-71
2023/05/17 05:41:42;;;;;;;11.27;1.90;;;;;;;11.39;88.46;101387.06;5139308;28;20081;-72
2023/05/17 05:44:12;;;;;;;13.10;2.75;;;;;;;11.12;89.35;101394.75;5139174;28;20077;-71
2023/05/17 05:46:43;;;;;;;6.90;1.75;;;;;;;11.26;91.23;101385.63;5145607;28;20320;-72
2023/05/17 05:49:13;;;;;;;11.93;1.90;;;;;;;10.79;91.64;101389.44;5140403;28;20076;-71
2023/05/17 05:51:43;;;;;;;11.85;2.10;;;;;;;11.05;90.96;101391.41;5140447;28;20043;-73
2023/05/17 05:54:13;;;;;;;7.60;1.60;;;;;;;11.15;89.21;101394.66;5142444;28;20027;-72
2023/05/17 05:56:44;;;;;;;12.32;1.73;;;;;;;10.99;87.68;101389.84;5141340;28;20481;-72
2023/05/17 05:59:14;;;;;;;13.60;2.30;;;;;;;10.99;87.16;101400.31;5145602;28;20049;-72
2023/05/17 06:01:45;;;;;;;8.25;1.80;;;;;;;10.96;87.52;101402.97;5142118;28;20038;-72
2023/05/17 06:04:15;;;;;;;13.70;2.03;;;;;;;11.18;86.04;101411.16;5147637;28;20113;-72
2023/05/17 06:09:30;;;;;;;9.05;1.50;;;;;;;11.76;80.20;101402.69;5144900;28;20049;-73
2023/05/17 06:12:00;;;;;;;10.98;1.67;;;;;;;12.02;79.33;101406.31;5148302;28;20532;-74
2023/05/17 06:14:30;;;;;;;10.77;1.35;;;;;;;12.07;77.00;101412.25;5148035;28;20057;-73
2023/05/17 06:17:01;;;;;;;9.25;1.50;;;;;;;13.00;74.69;101402.41;5149372;28;20308;-73
2023/05/17 06:19:31;;;;;;;8.10;1.30;;;;;;;13.65;73.22;101403.69;5142432;28;20073;-73
2023/05/17 06:22:02;;;;;;;4.35;1.10;;;;;;;14.51;70.50;101411.91;5144435;28;20034;-74
2023/05/17 06:24:32;;;;;;;8.20;1.73;;;;;;;14.49;68.62;101421.66;5146513;28;20516;-73
2023/05/17 06:27:02;;;;;;;8.73;1.65;;;;;;;14.77;67.49;101421.44;5143117;28;20027;-74
2023/05/17 06:29:33;;;;;;;9.63;1.70;;;;;;;15.14;65.57;101419.88;5144193;28;20263;-74
2023/05/17 06:32:03;;;;;;;8.77;1.30;;;;;;;15.52;64.12;101406.03;5146080;28;20076;-74
2023/05/17 06:34:34;;;;;;;7.28;1.40;;;;;;;15.83;63.39;101412.53;5144956;28;20055;-74
2023/05/17 06:37:05;;;;;;;8.25;1.60;;;;;;;16.66;61.16;101409.63;5147121;28;20033;-74
2023/05/17 06:39:35;;;;;;;5.53;0.80;;;;;;;16.30;61.93;101410.41;5142204;28;20548;-74
2023/05/17 06:42:05;;;;;;;6.57;1.17;;;;;;;16.92;59.79;101419.78;5148327;28;20122;-74
2023/05/17 06:44:36;;;;;;;7.25;1.05;;;;;;;15.87;59.74;101431.72;5145393;28;20069;-76
2023/05/17 06:47:06;;;;;;;5.93;1.25;;;;;;;16.08;59.77;101426.34;5149980;28;20026;-73
2023/05/17 06:49:37;;;;;;;10.82;1.40;;;;;;;15.55;61.11;101434.88;5150452;28;20089;-73
2023/05/17 06:52:07;;;;;;;8.27;1.27;;;;;;;15.50;60.89;101442.13;5149941;28;20069;-73
2023/05/17 06:54:37;;;;;;;7.85;1.30;;;;;;;14.26;61.86;101454.97;5145958;28;20481;-73
2023/05/17 06:57:08;;;;;;;8.52;1.48;;;;;;;14.66;60.32;101450.78;5147031;28;20041;-73
2023/05/17 06:59:39;;;;;;;8.93;1.17;;;;;;;15.22;58.70;101447.63;5142944;28;20106;-73
2023/05/17 07:02:09;;;;;;;7.72;2.58;;;;;;;16.31;55.98;101449.06;5144483;28;20122;-73
2023/05/17 07:04:40;;;;;;;6.30;1.00;;;;;;;14.92;57.35;101467.28;5145492;28;20603;-73
2023/05/17 07:07:10;;;;;;;10.90;1.10;;;;;;;15.76;57.76;101455.94;5146607;28;20049;-73
2023/05/17 07:09:40;;;;;;;6.82;1.33;;;;;;;16.98;55.86;101454.69;5148591;28;20026;-72
2023/05/17 07:12:10;;;;;;;6.63;1.30;;;;;;;16.59;54.98;101460.13;5167592;28;20507;-74
2023/05/17 07:14:41;;;;;;;7.82;1.20;;;;;;;15.52;57.43;101478.03;5144659;28;20033;-73
2023/05/17 07:17:11;;;;;;;7.97;1.17;;;;;;;14.77;58.51;101484.59;5166695;28;20053;-73
2023/05/17 07:19:41;;;;;;;7.85;1.17;;;;;;;13.86;60.20;101480.91;5161761;28;20090;-73
2023/05/17 07:22:12;;;;;;;6.90;0.95;;;;;;;13.85;60.30;101484.44;5150318;28;20030;-73
2023/05/17 07:24:43;;;;;;;12.20;1.40;;;;;;;13.81;60.15;101493.34;5146980;28;20425;-73
2023/05/17 07:27:13;;;;;;;5.18;0.70;;;;;;;13.96;61.50;101487.56;5147016;28;20057;-72
2023/05/17 07:29:43;;;;;;;3.90;0.80;;;;;;;14.62;60.24;101490.44;5161601;28;20027;-73
2023/05/17 07:32:14;;;;;;;7.70;1.42;;;;;;;14.68;59.33;101495.44;5142897;28;20187;-74
2023/05/17 07:34:45;;;;;;;10.73;1.80;;;;;;;16.82;57.02;101480.09;5144895;28;20149;-73
2023/05/17 07:37:15;;;;;;;16.73;1.35;;;;;;;17.26;54.01;101492.06;5144768;28;20105;-74
2023/05/17 07:39:45;;;;;;;5.40;1.00;;;;;;;16.95;53.76;101490.97;5144436;28;20074;-72
2023/05/17 07:42:16;;;;;;;5.63;1.02;;;;;;;16.86;54.92;101500.19;5150834;28;20026;-73
2023/05/17 07:44:48;;;;;;;3.25;0.82;;;;;;;16.52;53.58;101501.78;5146004;28;20785;-74
2023/05/17 07:47:18;;;;;;;5.82;1.00;;;;;;;15.70;56.35;101516.78;5151559;28;20069;-74
2023/05/17 07:49:49;;;;;;;8.52;1.67;;;;;;;15.81;56.98;101513.69;5148619;28;20026;-73
2023/05/17 07:52:19;;;;;;;5.95;1.00;;;;;;;15.02;58.72;101521.28;5151353;28;20432;-73
2023/05/17 07:54:50;;;;;;;8.00;1.25;;;;;;;14.44;60.05;101525.31;5146444;28;20065;-73
2023/05/17 07:57:20;;;;;;;5.20;0.90;;;;;;;13.83;60.84;101534.44;5151965;28;20034;-74
2023/05/17 07:59:50;;;;;;;7.78;1.25;;;;;;;13.88;60.30;101536.91;5150513;28;20030;-74
2023/05/17 08:02:21;;;;;;;8.35;1.33;;;;;;;14.18;61.69;101541.13;5148726;28;20644;-73
2023/05/17 08:04:51;;;;;;;9.50;1.40;;;;;;;14.88;58.34;101534.13;5162539;28;20378;-73
2023/05/17 08:07:21;;;;;;;7.18;1.38;;;;;;;14.46;59.03;101536.63;5142285;28;20567;-73
2023/05/17 08:09:51;;;;;;;3.67;1.00;;;;;;;13.75;59.66;101535.59;5140077;28;21200;-73
2023/05/17 08:12:22;;;;;;;5.00;0.93;;;;;;;13.62;60.37;101536.91;5146113;28;20090;-74
2023/05/17 08:14:52;;;;;;;8.27;0.98;;;;;;;13.57;60.81;101531.78;5166650;28;20613;-73
2023/05/17 08:17:22;;;;;;;8.73;1.20;;;;;;;13.50;59.92;101534.66;5146236;28;20026;-73
2023/05/17 08:19:53;;;;;;;8.15;1.08;;;;;;;13.51;60.34;101536.38;5146869;28;20594;-73
2023/05/17 08:22:23;;;;;;;6.90;1.10;;;;;;;13.39;60.29;101544.69;5150849;28;20044;-72
2023/05/17 08:24:53;;;;;;;10.18;1.95;;;;;;;13.61;59.77;101537.81;5146121;28;20089;-72
2023/05/17 08:27:25;;;;;;;8.38;1.63;;;;;;;14.41;58.77;101522.78;5149750;28;20512;-72
2023/05/17 08:29:56;;;;;;;7.55;1.00;;;;;;;14.71;57.22;101532.19;5164542;28;20018;-73
2023/05/17 08:32:27;;;;;;;6.75;1.20;;;;;;;14.61;57.99;101528.19;5144895;28;20101;-74
2023/05/17 08:34:57;;;;;;;7.53;1.30;;;;;;;14.88;57.10;101528.84;5145186;28;20019;-74
2023/05/17 08:37:27;;;;;;;8.60;1.50;;;;;;;14.77;59.26;101531.97;5151161;28;20498;-74
2023/05/17 08:39:58;;;;;;;2.67;0.90;;;;;;;14.24;57.05;101539.16;5166063;28;20037;-74
2023/05/17 08:42:28;;;;;;;7.93;1.05;;;;;;;14.18;57.08;101528.00;5151711;28;20037;-72
2023/05/17 08:44:59;;;;;;;7.47;0.93;;;;;;;14.48;56.62;101540.06;5148766;28;20026;-75
2023/05/17 08:47:32;;;;;;;5.18;0.85;;;;;;;14.79;56.95;101536.22;5149174;28;20037;-73
2023/05/17 08:50:04;;;;;;;9.68;1.10;;;;;;;15.25;56.60;101529.16;5166370;28;20493;-73
2023/05/17 08:52:36;;;;;;;6.95;0.85;;;;;;;15.48;55.65;101529.13;5147530;28;20053;-73
2023/05/17 08:55:07;;;;;;;7.40;1.80;;;;;;;15.80;56.04;101533.94;5149278;28;20081;-74
2023/05/17 08:57:38;;;;;;;10.30;2.13;;;;;;;17.81;52.27;101522.81;5145367;28;20027;-73
2023/05/17 09:00:13;;;;;;;10.80;2.67;;;;;;;16.67;53.80;101524.84;5149796;28;20088;-74
2023/05/17 09:02:43;;;;;;;9.57;1.58;;;;;;;15.95;54.40;101541.22;5147305;28;20034;-73
2023/05/17 09:05:14;;;;;;;7.38;1.25;;;;;;;15.80;56.23;101541.84;5153663;28;20190;-73
2023/05/17 09:07:46;;;;;;;5.65;1.60;;;;;;;15.26;55.97;101541.44;5145086;28;20034;-73
2023/05/17 09:10:16;;;;;;;6.55;1.20;;;;;;;17.86;52.65;101520.78;5150115;28;20022;-74
2023/05/17 09:12:47;;;;;;;4.85;1.10;;;;;;;18.16;52.17;101518.41;5146210;28;20042;-73
2023/05/17 09:15:19;;;;;;;4.65;0.90;;;;;;;17.27;51.17;101525.47;5145239;28;20030;-74
2023/05/17 09:17:53;;;;;;;4.07;1.30;;;;;;;16.24;51.39;101529.41;5146043;28;20096;-74
2023/05/17 09:20:35;;;;;;;4.30;0.85;;;;;;;15.88;53.28;101539.75;5164591;28;20344;-72
2023/05/17 09:23:12;;;;;;;8.02;1.48;;;;;;;15.41;54.71;101538.22;5148453;28;20034;-73
2023/05/17 09:25:48;;;;;;;6.82;0.98;;;;;;;15.43;54.96;101525.84;5145542;28;20030;-73
2023/05/17 09:28:22;;;;;;;5.57;1.17;;;;;;;15.35;55.38;101538.44;5147441;28;20077;-73
2023/05/17 09:30:52;;;;;;;8.23;1.30;;;;;;;15.04;55.16;101527.34;5143466;28;20504;-74
2023/05/17 09:33:22;;;;;;;6.03;1.17;;;;;;;15.33;55.59;101535.00;5150263;28;20030;-74
2023/05/17 09:35:53;;;;;;;7.93;1.25;;;;;;;15.20;54.90;101533.75;5147641;28;20569;-74
2023/05/17 09:38:26;;;;;;;7.45;1.30;;;;;;;15.63;53.90;101523.25;5147361;28;20105;-72
2023/05/17 09:40:57;;;;;;;9.60;1.20;;;;;;;15.87;54.93;101534.56;5146014;28;20026;-74
2023/05/17 09:43:28;;;;;;;9.07;1.23;;;;;;;15.78;53.56;101522.63;5151092;28;20031;-73
2023/05/17 09:45:58;;;;;;;4.50;1.00;;;;;;;15.47;53.14;101531.81;5147252;28;20073;-74
2023/05/17 09:48:29;;;;;;;6.97;1.65;;;;;;;15.61;53.64;101530.38;5144347;28;20026;-73
2023/05/17 09:51:00;;;;;;;6.35;1.08;;;;;;;17.12;51.45;101515.66;5149502;28;20027;-73
2023/05/17 09:53:31;;;;;;;9.70;1.55;;;;;;;17.84;51.32;101527.09;5149978;28;20168;-73
2023/05/17 09:56:04;;;;;;;6.88;1.50;;;;;;;18.18;50.16;101517.34;5144973;28;20034;-74
2023/05/17 09:58:37;;;;;;;12.68;2.10;;;;;;;17.68;51.30;101528.78;5145080;28;20506;-73
2023/05/17 10:01:10;;;;;;;5.32;1.27;;;;;;;17.68;51.79;101528.78;5147705;28;20495;-72
2023/05/17 10:03:40;;;;;;;4.72;0.98;;;;;;;16.69;52.45;101530.06;5146517;28;20465;-74
2023/05/17 10:06:11;;;;;;;7.25;1.73;;;;;;;16.07;53.93;101543.31;5147607;28;20050;-73
2023/05/17 10:08:43;;;;;;;6.45;1.00;;;;;;;16.22;54.68;101540.03;5156508;28;20073;-73
2023/05/17 10:11:13;;;;;;;7.07;2.05;;;;;;;16.77;52.89;101532.28;5165224;28;20022;-73
2023/05/17 10:14:14;;;;;;;10.55;1.45;;;;;;;16.48;52.78;101534.50;5143742;28;20041;-73
2023/05/17 10:16:45;;;;;;;4.97;1.10;;;;;;;16.35;53.93;101533.34;5148131;28;20039;-73
2023/05/17 10:19:19;;;;;;;8.93;1.38;;;;;;;15.97;54.45;101542.00;5150049;28;20073;-74
2023/05/17 10:21:51;;;;;;;6.55;1.92;;;;;;;16.57;54.93;101535.88;5142859;28;20058;-74
2023/05/17 10:24:22;;;;;;;5.35;1.02;;;;;;;16.80;53.20;101536.56;5148912;28;20256;-74
2023/05/17 10:26:52;;;;;;;7.43;1.02;;;;;;;16.93;52.99;101525.34;5138309;28;20023;-73
2023/05/17 10:29:23;;;;;;;8.15;1.60;;;;;;;16.58;53.06;101527.88;5147482;28;20022;-73
2023/05/17 10:31:54;;;;;;;14.20;1.88;;;;;;;16.56;52.89;101537.66;5157845;28;20258;-73
2023/05/17 10:34:27;;;;;;;6.57;1.02;;;;;;;16.19;53.53;101542.81;5135306;28;20101;-73
2023/05/17 10:37:00;;;;;;;7.10;0.93;;;;;;;15.78;53.37;101538.44;5136420;28;20261;-73
2023/05/17 10:39:33;;;;;;;7.53;1.13;;;;;;;15.30;55.13;101555.34;5139163;28;20113;-73
2023/05/17 10:42:07;;;;;;;6.45;1.10;;;;;;;15.70;54.50;101537.88;5145395;28;20038;-72
2023/05/17 10:44:38;;;;;;;8.07;1.23;;;;;;;15.81;54.43;101533.03;5143753;28;20505;-73
2023/05/17 10:47:10;;;;;;;3.72;1.00;;;;;;;15.82;54.63;101540.00;5145807;28;20037;-73
2023/05/17 10:49:46;;;;;;;4.60;1.05;;;;;;;15.67;54.03;101535.38;5149132;28;20049;-73
2023/05/17 10:52:20;;;;;;;6.60;1.85;;;;;;;16.14;54.26;101530.72;5145809;28;20060;-73
2023/05/17 10:54:51;;;;;;;6.70;1.42;;;;;;;16.70;53.99;101529.97;5160331;28;20035;-74
2023/05/17 10:57:34;;;;;;;9.95;1.50;;;;;;;16.89;52.84;101528.22;5149700;28;20104;-75
2023/05/17 11:00:06;;;;;;;5.40;1.40;;;;;;;16.97;53.18;101532.19;5146594;28;20436;-73
2023/05/17 11:02:41;;;;;;;7.80;1.17;;;;;;;16.42;53.30;101528.66;5146809;28;20038;-75
2023/05/17 11:05:23;;;;;;;5.93;1.10;;;;;;;16.53;53.37;101540.44;5146944;28;20114;-73
2023/05/17 11:08:14;;;;;;;8.57;1.60;;;;;;;15.84;52.46;101548.72;5143966;28;20416;-74
2023/05/17 11:11:08;;;;;;;8.18;1.50;;;;;;;15.19;52.09;101547.81;5143833;28;20106;-73
2023/05/17 11:13:53;;;;;;;6.43;1.30;;;;;;;15.26;52.80;101551.97;5143618;28;20041;-71
2023/05/17 11:16:33;;;;;;;10.65;1.42;;;;;;;15.72;52.48;101540.47;5143866;28;20429;-73
2023/05/17 11:19:08;;;;;;;4.32;0.90;;;;;;;15.83;52.84;101532.94;5144009;28;20106;-73
2023/05/17 11:21:46;;;;;;;7.63;1.38;;;;;;;15.78;52.26;101522.63;5145496;28;20050;-73
2023/05/17 11:24:25;;;;;;;9.38;1.35;;;;;;;15.35;52.86;101530.53;5152119;28;20034;-71
2023/05/17 11:26:56;;;;;;;5.72;1.00;;;;;;;15.29;53.96;101543.97;5156534;28;20045;-73
2023/05/17 11:29:28;;;;;;;3.28;1.33;;;;;;;15.11;51.36;101544.66;5150589;28;20018;-72
2023/05/17 11:32:05;;;;;;;7.45;1.00;;;;;;;15.35;52.58;101533.16;5151559;28;20038;-74
2023/05/17 11:34:37;;;;;;;4.88;0.85;;;;;;;15.78;51.17;101534.94;5150212;28;20046;-74
2023/05/17 11:37:10;;;;;;;5.43;1.33;;;;;;;15.44;52.07;101522.28;5153768;28;21324;-73
2023/05/17 11:40:00;;;;;;;2.75;0.75;;;;;;;15.72;52.12;101538.66;5145266;28;20026;-73
2023/05/17 11:42:31;;;;;;;4.22;0.70;;;;;;;15.85;50.89;101531.97;5150797;28;20224;-73
2023/05/17 11:45:01;;;;;;;5.72;1.02;;;;;;;15.72;52.83;101537.81;5148019;28;20053;-74
2023/05/17 11:47:32;;;;;;;3.95;0.98;;;;;;;15.64;51.75;101538.13;5149598;28;20030;-74
2023/05/17 11:50:03;;;;;;;4.18;1.20;;;;;;;15.72;53.68;101551.00;5131273;28;20399;-73